Latest Coastal Weather Observations for Cape Otway

IDV60701

Issued at 3:21 pm EDT Sunday 17 November 2019 (issued every 10 minutes, with the page automatically refreshed every 10 minutes)

About coastal observations | Map of coastal stations | Coastal observations for VIC | Marine services | Other Formats
Station Details ID: 090015 Name: CAPE OTWAY LIGHTHOUSE Lat: -38.86 Lon: 143.51 Height: 82.0 m
Data from the previous 72 hours. | See also: Recent months at Cape Otway
Date/Time
EDT
Wind Sea
Height
m
Swell Vis
km
Cloud Weather Temp
°C
Press
hPa
Rain since
9am
mm
Dir  Spd
kts
Gust
kts
Height
m
Period
s
Dir
17/03:00pm WSW 10 14 - - - - - - - 13.6 1021.4 0.0
17/02:30pm WSW 10 14 - - - - - - - 13.4 1021.8 0.0
17/02:00pm SW 13 16 - - - - - - - 13.6 1022.2 0.0
17/01:30pm SW 13 16 - - - - - - - 13.6 1022.2 0.0
17/01:00pm SW 13 17 - - - - - - - 13.4 1022.3 0.0
17/12:30pm SW 14 18 - - - - - - - 13.1 1022.7 0.0
17/12:00pm SW 16 20 - - - - - - - 12.9 1022.7 0.0
17/11:30am SW 15 21 - - - - - - - 13.2 1022.8 0.0
17/11:00am SW 14 20 - - - - - - - 12.8 1022.7 0.0
17/10:30am SW 13 17 - - - - - - - 12.6 1022.3 0.0
17/10:00am SSW 13 19 - - - - - - - 12.5 1022.0 0.0
17/09:30am SW 19 25 - - - - - - - 12.1 1022.0 0.0
17/09:00am SSW 15 21 - - - - - - - 11.9 1021.7 0.4
17/08:30am SSW 17 23 - - - - - - - 11.6 1021.4 0.4
17/08:00am SSW 17 22 - - - - - - - 11.0 1021.3 0.4
17/07:30am SSW 16 21 - - - - - - - 11.2 1020.7 0.4
17/07:00am SSW 15 20 - - - - - - - 10.4 1020.3 0.4
17/06:30am SW 19 24 - - - - - - - 10.5 1020.2 0.4
17/06:00am SSW 18 25 - - - - - - - 10.4 1019.8 0.4
17/05:42am SW 15 25 - - - - - - - 11.1 1019.4 0.4
17/05:30am SW 15 21 - - - - - - - 11.0 1019.4 0.4
17/05:00am SW 17 23 - - - - - - - 11.2 1019.0 0.4
17/04:59am SW 17 27 - - - - - - - 11.2 1019.0 0.4
17/04:30am SW 17 23 - - - - - - - 10.8 1018.9 0.4
17/04:00am SW 17 21 - - - - - - - 10.9 1018.9 0.4
17/03:32am WSW 17 29 - - - - - - - 11.6 1018.6 0.4
17/03:30am WSW 15 22 - - - - - - - 11.5 1018.6 0.4
17/03:00am WSW 16 22 - - - - - - - 11.6 1018.7 0.4
17/02:30am WSW 16 24 - - - - - - - 11.3 1018.6 0.4
17/02:00am WSW 14 22 - - - - - - - 10.8 1018.8 0.4
17/01:52am WSW 15 25 - - - - - - - 10.9 1018.9 0.4
17/01:30am SW 17 24 - - - - - - - 11.4 1019.1 0.2
17/01:00am WSW 16 23 - - - - - - - 11.7 1019.3 0.2
17/12:30am WSW 18 26 - - - - - - - 11.8 1019.3 0.2
17/12:01am WSW 19 29 - - - - - - - 11.4 1019.4 0.2
17/12:00am SW 20 29 - - - - - - - 11.4 1019.4 0.2
 
Date/Time
EDT
Wind Sea
Height
m
Swell Vis
km
Cloud Weather Temp
°C
Press
hPa
Rain since
9am
mm
Dir  Spd
kts
Gust
kts
Height
m
Period
s
Dir
16/11:52pm WSW 18 28 - - - - - - - 11.6 1019.3 0.2
16/11:30pm WSW 16 23 - - - - - - - 11.9 1019.3 0.2
16/11:16pm WSW 16 26 - - - - - - - 11.7 1019.4 0.2
16/11:00pm WSW 17 25 - - - - - - - 12.0 1019.4 0.2
16/10:30pm W 17 24 - - - - - - - 12.0 1019.4 0.2
16/10:00pm W 18 24 - - - - - - - 12.0 1019.4 0.2
16/09:30pm W 16 23 - - - - - - - 12.1 1019.3 0.2
16/09:00pm W 17 22 - - - - - - - 12.2 1019.1 0.2
16/08:30pm W 20 26 - - - - - - - 11.9 1019.0 0.2
16/08:00pm W 17 26 - - - - - - - 12.0 1018.8 0.2
16/07:30pm W 18 25 - - - - - - - 11.9 1018.4 0.2
16/07:00pm W 18 27 - - - - - - - 12.0 1018.4 0.2
16/06:57pm W 17 27 - - - - - - - 12.0 1018.4 0.2
16/06:30pm W 18 25 - - - - - - - 12.2 1018.2 0.2
16/06:00pm W 18 24 - - - - - - - 12.1 1018.1 0.2
16/05:30pm W 18 25 - - - - - - - 12.2 1018.2 0.2
16/05:00pm W 17 23 - - - - - - - 12.4 1018.0 0.2
16/04:37pm W 17 27 - - - - - - - 11.9 1018.3 0.2
16/04:30pm W 16 22 - - - - - - - 11.7 1018.3 0.2
16/04:00pm W 13 19 - - - - - - - 12.0 1018.6 0.2
16/03:30pm W 14 20 - - - - - - - 12.2 1018.7 0.2
16/03:09pm W 15 25 - - - - - - - 11.2 1018.9 0.2
16/03:00pm W 18 25 - - - - - - Recent precip. 11.1 1019.0 0.2
16/02:30pm W 17 23 - - - - - - - 11.3 1019.1 0.2
16/02:00pm WSW 18 24 - - - - - - - 12.8 1018.9 0.0
16/01:30pm W 17 22 - - - - - - - 13.6 1018.8 0.0
16/01:00pm W 16 22 - - - - - - - 13.3 1018.7 0.0
16/12:30pm W 14 19 - - - - - - - 13.0 1018.8 0.0
16/12:00pm W 14 18 - - - - - - - 12.7 1018.8 0.0
16/11:30am W 13 18 - - - - - - - 13.8 1018.6 0.0
16/11:00am WSW 14 20 - - - - - - - 12.5 1018.5 0.0
16/10:30am WSW 17 23 - - - - - - - 11.9 1018.4 0.0
16/10:00am W 17 25 - - - - - - - 11.9 1018.2 0.0
16/09:30am WSW 16 23 - - - - - - - 12.8 1018.1 0.0
16/09:00am WSW 16 23 - - - - - - - 12.4 1017.8 0.4
16/08:30am WSW 16 23 - - - - - - - 12.2 1017.5 0.4
16/08:00am WSW 16 23 - - - - - - - 12.0 1017.3 0.4
16/07:30am WSW 18 24 - - - - - - - 11.3 1017.1 0.4
16/07:00am WSW 17 27 - - - - - - - 11.3 1016.8 0.4
16/06:55am WSW 17 27 - - - - - - - 11.2 1016.8 0.4
16/06:30am WSW 17 25 - - - - - - - 11.2 1016.5 0.4
16/06:00am WSW 17 25 - - - - - - - 11.0 1016.2 0.4
16/05:39am WSW 17 27 - - - - - - - 11.0 1016.0 0.4
16/05:30am WSW 18 27 - - - - - - - 11.1 1015.9 0.4
16/05:00am W 17 25 - - - - - - - 11.1 1015.9 0.4
16/04:30am WSW 17 26 - - - - - - - 11.1 1016.0 0.4
16/04:00am WSW 16 24 - - - - - - - 11.1 1016.1 0.4
16/03:30am WSW 19 29 - - - - - - - 11.1 1016.1 0.4
16/03:19am WSW 16 26 - - - - - - - 11.4 1016.1 0.4
16/03:00am WSW 16 24 - - - - - - - 11.1 1016.2 0.4
16/02:30am WSW 15 22 - - - - - - - 11.2 1016.1 0.4
16/02:00am WSW 17 27 - - - - - - - 11.3 1016.1 0.4
16/01:54am WSW 16 27 - - - - - - - 11.2 1016.1 0.4
16/01:30am WSW 18 26 - - - - - - - 11.2 1016.2 0.4
16/01:00am WSW 19 27 - - - - - - - 11.3 1016.1 0.4
16/12:38am WSW 18 28 - - - - - - - 10.7 1016.0 0.4
16/12:30am WSW 17 26 - - - - - - - 11.0 1016.1 0.4
16/12:13am WSW 17 27 - - - - - - - 12.0 1016.0 0.2
16/12:00am WSW 18 25 - - - - - - - 11.7 1015.9 0.2
 
Date/Time
EDT
Wind Sea
Height
m
Swell Vis
km
Cloud Weather Temp
°C
Press
hPa
Rain since
9am
mm
Dir  Spd
kts
Gust
kts
Height
m
Period
s
Dir
15/11:30pm WSW 19 25 - - - - - - - 11.7 1015.9 0.2
15/11:00pm WSW 18 28 - - - - - - - 11.7 1016.0 0.2
15/10:58pm WSW 18 28 - - - - - - - 11.8 1016.0 0.2
15/10:30pm WSW 19 27 - - - - - - - 11.5 1015.8 0.2
15/10:00pm WSW 21 31 - - - - - - - 11.7 1015.4 0.2
15/09:56pm WSW 21 31 - - - - - - - 11.6 1015.3 0.2
15/09:30pm W 21 28 - - - - - - - 11.8 1015.0 0.2
15/09:00pm W 20 29 - - - - - - - 11.7 1014.8 0.2
15/08:30pm W 19 25 - - - - - - - 11.7 1014.5 0.2
15/08:18pm W 19 29 - - - - - - - 11.7 1014.3 0.2
15/08:00pm W 21 27 - - - - - - - 12.0 1014.1 0.2
15/07:34pm W 20 31 - - - - - - - 12.0 1013.7 0.2
15/07:30pm WSW 20 28 - - - - - - - 12.2 1013.7 0.2
15/07:06pm W 20 30 - - - - - - - 12.6 1013.0 0.2
15/07:00pm W 20 27 - - - - - - - 12.8 1012.9 0.2
15/06:30pm WSW 20 30 - - - - - - - 13.1 1012.5 0.2
15/06:16pm WSW 20 30 - - - - - - - 13.2 1012.4 0.2
15/06:00pm W 20 27 - - - - - - - 13.1 1012.4 0.2
15/05:30pm WSW 19 29 - - - - - - - 13.4 1012.1 0.2
15/05:10pm WSW 21 32 - - - - - - - 13.2 1011.9 0.2
15/05:00pm WSW 22 31 - - - - - - - 13.5 1011.7 0.2
15/04:30pm W 22 29 - - - - - - - 13.7 1011.3 0.2
15/04:05pm W 22 32 - - - - - - - 14.1 1011.1 0.2
15/04:00pm W 23 32 - - - - - - - 13.8 1011.1 0.2
15/03:35pm W 24 34 - - - - - - - 13.7 1011.0 0.2
15/03:30pm W 25 34 - - - - - - - 13.2 1011.1 0.2
15/03:00pm W 22 32 - - - - - - - 13.2 1010.9 0.2
15/02:30pm W 21 31 - - - - - - - 11.9 1011.1 0.2
15/02:27pm W 21 31 - - - - - - - 11.6 1011.1 0.2
15/02:00pm W 23 32 - - - - - - - 12.1 1010.8 0.2
15/01:33pm W 22 32 - - - - - - - 12.7 1010.5 0.2
15/01:30pm W 23 32 - - - - - - - 12.7 1010.4 0.2
15/01:00pm WSW 23 34 - - - - - - - 12.2 1010.0 0.2
15/12:30pm W 25 41 - - - - - - - 12.1 1009.8 0.0
15/12:21pm W 23 41 - - - - - - - 12.9 1009.7 0.0
15/12:00pm W 22 31 - - - - - - - 11.9 1009.9 0.0
15/11:57am W 21 31 - - - - - - - 12.0 1009.9 0.0
15/11:30am W 21 28 - - - - - - - 13.8 1009.9 0.0
15/11:00am W 20 27 - - - - - - - 13.6 1009.8 0.0
15/10:30am W 20 27 - - - - - - - 13.4 1009.8 0.0
15/10:22am W 19 29 - - - - - - - 13.3 1009.7 0.0
15/10:00am W 19 26 - - - - - - - 13.0 1009.7 0.0
15/09:45am W 19 29 - - - - - - - 12.9 1009.5 0.0
15/09:30am W 20 27 - - - - - - - 13.1 1009.4 0.0
15/09:00am W 21 28 - - - - - - - 12.6 1009.2 1.2
15/08:39am W 18 28 - - - - - - - 12.4 1009.1 1.2
15/08:30am W 18 27 - - - - - - - 12.4 1009.0 1.2
15/08:10am WNW 17 29 - - - - - - - 12.2 1008.8 1.2
15/08:00am WNW 18 26 - - - - - - - 12.1 1008.8 1.2
15/07:30am W 21 31 - - - - - - - 12.1 1008.7 1.0
15/07:28am W 21 31 - - - - - - - 12.1 1008.6 1.0
15/07:00am W 21 29 - - - - - - - 11.6 1008.6 1.0
15/06:39am W 21 31 - - - - - - - 12.0 1008.5 0.8
15/06:30am W 21 29 - - - - - - - 12.3 1008.4 0.8
15/06:07am W 20 30 - - - - - - - 12.2 1008.2 0.8
15/06:00am W 23 31 - - - - - - - 12.1 1008.1 0.8
15/05:30am W 20 30 - - - - - - - 12.4 1007.8 0.8
15/05:22am W 20 30 - - - - - - - 12.2 1007.8 0.8
15/05:00am WNW 18 25 - - - - - - - 12.1 1007.8 0.8
15/04:51am W 20 30 - - - - - - - 12.1 1007.9 0.8
15/04:30am W 21 29 - - - - - - - 12.2 1007.9 0.8
15/04:00am W 21 29 - - - - - - - 12.0 1008.1 0.8
15/03:30am WNW 18 30 - - - - - - - 11.7 1008.2 0.8
15/03:07am W 22 32 - - - - - - - 11.9 1008.3 0.8
15/03:00am W 24 33 - - - - - - - 11.7 1008.3 0.8
15/02:30am WNW 19 29 - - - - - - - 11.7 1008.6 0.8
15/02:00am WNW 21 32 - - - - - - - 11.6 1008.9 0.8
15/01:47am WNW 17 30 - - - - - - - 11.4 1009.1 0.8
15/01:30am WNW 15 23 - - - - - - - 11.5 1009.3 0.4
15/01:05am WNW 16 28 - - - - - - - 11.7 1009.6 0.4
15/01:00am WNW 15 23 - - - - - - - 11.9 1009.5 0.2
15/12:31am WNW 20 31 - - - - - - - 12.6 1010.0 0.2
15/12:30am W 20 29 - - - - - - - 12.8 1009.9 0.2
15/12:00am W 24 34 - - - - - - - 12.7 1009.8 0.2
 
Date/Time
EDT
Wind Sea
Height
m
Swell Vis
km
Cloud Weather Temp
°C
Press
hPa
Rain since
9am
mm
Dir  Spd
kts
Gust
kts
Height
m
Period
s
Dir
14/11:50pm W 20 30 - - - - - - - 12.8 1010.0 0.2
14/11:30pm WNW 22 30 - - - - - - - 12.9 1010.3 0.2
14/11:01pm W 23 33 - - - - - - - 12.9 1010.7 0.2
14/11:00pm W 24 33 - - - - - - - 13.0 1010.7 0.2
14/10:30pm W 21 31 - - - - - - - 13.0 1011.0 0.2
14/10:00pm WNW 19 30 - - - - - - - 12.4 1011.3 0.2
14/09:30pm W 21 34 - - - - - - - 12.4 1011.3 0.2
14/09:06pm WNW 19 30 - - - - - - - 12.6 1011.3 0.2
14/09:00pm WNW 19 28 - - - - - - - 12.4 1011.4 0.2
14/08:34pm WNW 21 31 - - - - - - - 12.6 1011.2 0.2
14/08:30pm WNW 21 29 - - - - - - - 13.2 1011.4 0.2
14/08:00pm WNW 18 29 - - - - - - - 13.2 1011.3 0.2
14/07:30pm WNW 17 27 - - - - - - - 12.9 1011.4 0.2
14/07:00pm WNW 19 31 - - - - - - - 13.0 1011.4 0.2
14/06:42pm WNW 17 27 - - - - - - - 13.1 1011.6 0.2
14/06:30pm W 20 28 - - - - - - - 13.0 1011.6 0.2
14/06:14pm W 20 30 - - - - - - - 13.2 1011.6 0.2
14/06:00pm W 19 28 - - - - - - - 13.4 1011.7 0.2
14/05:30pm WNW 18 28 - - - - - - - 13.5 1011.7 0.2
14/05:10pm W 17 29 - - - - - - - 13.7 1011.7 0.2
14/05:00pm W 20 27 - - - - - - - 13.7 1011.8 0.2
14/04:30pm W 20 30 - - - - - - - 13.8 1012.0 0.2
14/04:12pm WNW 18 28 - - - - - - - 14.3 1011.9 0.2
14/04:00pm WNW 19 28 - - - - - - - 14.3 1011.9 0.2
14/03:40pm W 21 31 - - - - - - - 14.9 1012.1 0.2
14/03:30pm W 24 32 - - - - - - - 14.7 1012.0 0.2
14/03:22pm W 20 31 - - - - - - - 14.8 1012.1 0.2

Other formats

Comma delimited format used in spreadsheet applications
http://www.bom.gov.au/fwo/IDV60701/IDV60701.94842.axf

JavaScript Object Notation format (JSON) in row-major order
http://www.bom.gov.au/fwo/IDV60701/IDV60701.94842.json

Data quality

Most of these data are generated automatically and are frequently updated. Quality checks on data are not normally performed. It is possible for incorrect values to appear. Refer to information at About Latest Weather Observations and please check the disclaimer before using these data.